sensor_id;sensor_type;location;lat;lon;timestamp;P1;durP1;ratioP1;P2;durP2;ratioP2
10831;SDS011;5469;48.574;8.768;2022-09-27T00:02:09;0.17;;;0.17;;
10831;SDS011;5469;48.574;8.768;2022-09-27T00:04:44;0.00;;;0.00;;
10831;SDS011;5469;48.574;8.768;2022-09-27T00:07:19;0.10;;;0.10;;
10831;SDS011;5469;48.574;8.768;2022-09-27T00:09:56;0.07;;;0.07;;
10831;SDS011;5469;48.574;8.768;2022-09-27T00:12:31;0.80;;;0.10;;
10831;SDS011;5469;48.574;8.768;2022-09-27T00:15:06;0.10;;;0.10;;
10831;SDS011;5469;48.574;8.768;2022-09-27T00:17:44;0.00;;;0.00;;
10831;SDS011;5469;48.574;8.768;2022-09-27T00:20:22;0.13;;;0.13;;
10831;SDS011;5469;48.574;8.768;2022-09-27T00:22:58;0.00;;;0.00;;
10831;SDS011;5469;48.574;8.768;2022-09-27T00:25:33;0.10;;;0.10;;
10831;SDS011;5469;48.574;8.768;2022-09-27T00:28:09;0.30;;;0.00;;
10831;SDS011;5469;48.574;8.768;2022-09-27T00:30:44;3.73;;;0.37;;
10831;SDS011;5469;48.574;8.768;2022-09-27T00:33:21;0.00;;;0.00;;
10831;SDS011;5469;48.574;8.768;2022-09-27T00:36:02;0.00;;;0.00;;
10831;SDS011;5469;48.574;8.768;2022-09-27T00:38:36;0.37;;;0.00;;
10831;SDS011;5469;48.574;8.768;2022-09-27T00:41:12;0.17;;;0.07;;
10831;SDS011;5469;48.574;8.768;2022-09-27T00:43:50;0.03;;;0.03;;
10831;SDS011;5469;48.574;8.768;2022-09-27T00:46:27;0.10;;;0.10;;
10831;SDS011;5469;48.574;8.768;2022-09-27T00:49:10;0.00;;;0.00;;
10831;SDS011;5469;48.574;8.768;2022-09-27T00:51:51;0.20;;;0.20;;
10831;SDS011;5469;48.574;8.768;2022-09-27T00:54:32;0.30;;;0.20;;
10831;SDS011;5469;48.574;8.768;2022-09-27T00:57:13;0.10;;;0.10;;
10831;SDS011;5469;48.574;8.768;2022-09-27T00:59:50;0.80;;;0.20;;
10831;SDS011;5469;48.574;8.768;2022-09-27T01:02:30;0.07;;;0.07;;
10831;SDS011;5469;48.574;8.768;2022-09-27T01:05:09;0.30;;;0.20;;
10831;SDS011;5469;48.574;8.768;2022-09-27T01:07:47;0.10;;;0.10;;
10831;SDS011;5469;48.574;8.768;2022-09-27T01:10:22;0.10;;;0.10;;
10831;SDS011;5469;48.574;8.768;2022-09-27T01:13:03;0.10;;;0.10;;
10831;SDS011;5469;48.574;8.768;2022-09-27T01:15:46;0.03;;;0.03;;
10831;SDS011;5469;48.574;8.768;2022-09-27T01:18:31;0.20;;;0.20;;
10831;SDS011;5469;48.574;8.768;2022-09-27T01:30:37;0.10;;;0.10;;
10831;SDS011;5469;48.574;8.768;2022-09-27T01:33:21;0.10;;;0.10;;
10831;SDS011;5469;48.574;8.768;2022-09-27T01:36:07;0.37;;;0.10;;
10831;SDS011;5469;48.574;8.768;2022-09-27T01:38:55;0.00;;;0.00;;
10831;SDS011;5469;48.574;8.768;2022-09-27T01:41:41;0.00;;;0.00;;
10831;SDS011;5469;48.574;8.768;2022-09-27T01:44:26;0.10;;;0.10;;
10831;SDS011;5469;48.574;8.768;2022-09-27T01:47:08;0.00;;;0.00;;
10831;SDS011;5469;48.574;8.768;2022-09-27T01:49:51;0.00;;;0.00;;
10831;SDS011;5469;48.574;8.768;2022-09-27T01:52:31;0.60;;;0.20;;
10831;SDS011;5469;48.574;8.768;2022-09-27T01:55:10;0.07;;;0.07;;
10831;SDS011;5469;48.574;8.768;2022-09-27T01:57:49;0.10;;;0.00;;
10831;SDS011;5469;48.574;8.768;2022-09-27T02:00:30;0.33;;;0.20;;
10831;SDS011;5469;48.574;8.768;2022-09-27T02:03:10;0.10;;;0.00;;
10831;SDS011;5469;48.574;8.768;2022-09-27T02:05:49;0.00;;;0.00;;
10831;SDS011;5469;48.574;8.768;2022-09-27T02:08:29;0.10;;;0.10;;
10831;SDS011;5469;48.574;8.768;2022-09-27T02:11:09;0.00;;;0.00;;
10831;SDS011;5469;48.574;8.768;2022-09-27T02:13:47;0.00;;;0.00;;
10831;SDS011;5469;48.574;8.768;2022-09-27T02:16:28;0.30;;;0.20;;
10831;SDS011;5469;48.574;8.768;2022-09-27T02:19:15;0.23;;;0.17;;
10831;SDS011;5469;48.574;8.768;2022-09-27T02:22:00;0.40;;;0.00;;
10831;SDS011;5469;48.574;8.768;2022-09-27T02:24:44;0.00;;;0.00;;
10831;SDS011;5469;48.574;8.768;2022-09-27T02:27:26;0.00;;;0.00;;
10831;SDS011;5469;48.574;8.768;2022-09-27T02:30:10;0.07;;;0.00;;
10831;SDS011;5469;48.574;8.768;2022-09-27T02:32:57;0.83;;;0.10;;
10831;SDS011;5469;48.574;8.768;2022-09-27T02:35:38;0.00;;;0.00;;
10831;SDS011;5469;48.574;8.768;2022-09-27T02:38:17;0.97;;;0.10;;
10831;SDS011;5469;48.574;8.768;2022-09-27T02:41:00;0.00;;;0.00;;
10831;SDS011;5469;48.574;8.768;2022-09-27T02:43:39;0.00;;;0.00;;
10831;SDS011;5469;48.574;8.768;2022-09-27T02:49:40;0.17;;;0.10;;
10831;SDS011;5469;48.574;8.768;2022-09-27T02:52:30;0.07;;;0.07;;
10831;SDS011;5469;48.574;8.768;2022-09-27T02:55:22;0.20;;;0.20;;
10831;SDS011;5469;48.574;8.768;2022-09-27T02:58:11;0.20;;;0.20;;
10831;SDS011;5469;48.574;8.768;2022-09-27T03:00:59;2.00;;;0.20;;
10831;SDS011;5469;48.574;8.768;2022-09-27T03:03:44;0.03;;;0.00;;
10831;SDS011;5469;48.574;8.768;2022-09-27T03:06:27;0.07;;;0.07;;
10831;SDS011;5469;48.574;8.768;2022-09-27T03:09:06;0.83;;;0.10;;
10831;SDS011;5469;48.574;8.768;2022-09-27T03:11:49;0.23;;;0.10;;
10831;SDS011;5469;48.574;8.768;2022-09-27T03:14:25;0.57;;;0.30;;
10831;SDS011;5469;48.574;8.768;2022-09-27T03:17:00;0.27;;;0.13;;
10831;SDS011;5469;48.574;8.768;2022-09-27T03:19:35;2.27;;;0.67;;
10831;SDS011;5469;48.574;8.768;2022-09-27T03:22:11;0.17;;;0.17;;
10831;SDS011;5469;48.574;8.768;2022-09-27T03:25:10;1.03;;;0.43;;
10831;SDS011;5469;48.574;8.768;2022-09-27T03:27:45;0.77;;;0.27;;
10831;SDS011;5469;48.574;8.768;2022-09-27T03:30:21;0.10;;;0.10;;
10831;SDS011;5469;48.574;8.768;2022-09-27T03:32:57;0.30;;;0.30;;
10831;SDS011;5469;48.574;8.768;2022-09-27T03:35:32;0.17;;;0.17;;
10831;SDS011;5469;48.574;8.768;2022-09-27T03:38:07;0.10;;;0.10;;
10831;SDS011;5469;48.574;8.768;2022-09-27T03:40:45;1.17;;;0.30;;
10831;SDS011;5469;48.574;8.768;2022-09-27T03:43:20;0.90;;;0.30;;
10831;SDS011;5469;48.574;8.768;2022-09-27T03:45:55;2.50;;;0.20;;
10831;SDS011;5469;48.574;8.768;2022-09-27T03:48:31;1.60;;;0.30;;
10831;SDS011;5469;48.574;8.768;2022-09-27T03:51:06;0.33;;;0.30;;
10831;SDS011;5469;48.574;8.768;2022-09-27T03:53:42;1.50;;;0.20;;
10831;SDS011;5469;48.574;8.768;2022-09-27T03:56:20;0.80;;;0.50;;
10831;SDS011;5469;48.574;8.768;2022-09-27T03:58:55;0.40;;;0.30;;
10831;SDS011;5469;48.574;8.768;2022-09-27T04:01:30;0.23;;;0.23;;
10831;SDS011;5469;48.574;8.768;2022-09-27T04:04:07;1.30;;;0.40;;
10831;SDS011;5469;48.574;8.768;2022-09-27T04:06:46;1.27;;;0.27;;
10831;SDS011;5469;48.574;8.768;2022-09-27T04:09:30;0.70;;;0.20;;
10831;SDS011;5469;48.574;8.768;2022-09-27T04:12:07;0.30;;;0.10;;
10831;SDS011;5469;48.574;8.768;2022-09-27T04:14:43;0.00;;;0.00;;
10831;SDS011;5469;48.574;8.768;2022-09-27T04:17:21;0.27;;;0.17;;
10831;SDS011;5469;48.574;8.768;2022-09-27T04:19:58;0.20;;;0.20;;
10831;SDS011;5469;48.574;8.768;2022-09-27T04:22:38;0.10;;;0.10;;
10831;SDS011;5469;48.574;8.768;2022-09-27T04:25:25;0.10;;;0.10;;
10831;SDS011;5469;48.574;8.768;2022-09-27T04:28:02;0.13;;;0.13;;
10831;SDS011;5469;48.574;8.768;2022-09-27T04:30:38;0.40;;;0.30;;
10831;SDS011;5469;48.574;8.768;2022-09-27T04:33:16;0.30;;;0.20;;
10831;SDS011;5469;48.574;8.768;2022-09-27T04:35:54;0.00;;;0.00;;
10831;SDS011;5469;48.574;8.768;2022-09-27T04:38:47;0.20;;;0.20;;
10831;SDS011;5469;48.574;8.768;2022-09-27T04:41:25;0.50;;;0.50;;
10831;SDS011;5469;48.574;8.768;2022-09-27T04:44:15;0.40;;;0.07;;
10831;SDS011;5469;48.574;8.768;2022-09-27T04:46:50;0.00;;;0.00;;
10831;SDS011;5469;48.574;8.768;2022-09-27T04:49:26;0.10;;;0.10;;
10831;SDS011;5469;48.574;8.768;2022-09-27T04:52:02;2.20;;;0.40;;
10831;SDS011;5469;48.574;8.768;2022-09-27T04:54:37;0.27;;;0.27;;
10831;SDS011;5469;48.574;8.768;2022-09-27T04:57:13;0.00;;;0.00;;
10831;SDS011;5469;48.574;8.768;2022-09-27T04:59:54;0.10;;;0.10;;
10831;SDS011;5469;48.574;8.768;2022-09-27T05:02:31;0.20;;;0.20;;
10831;SDS011;5469;48.574;8.768;2022-09-27T05:05:06;0.30;;;0.30;;
10831;SDS011;5469;48.574;8.768;2022-09-27T05:07:43;2.00;;;0.30;;
10831;SDS011;5469;48.574;8.768;2022-09-27T05:10:18;0.80;;;0.20;;
10831;SDS011;5469;48.574;8.768;2022-09-27T05:12:53;0.50;;;0.20;;
10831;SDS011;5469;48.574;8.768;2022-09-27T05:15:31;0.10;;;0.10;;
10831;SDS011;5469;48.574;8.768;2022-09-27T05:18:07;0.20;;;0.20;;
10831;SDS011;5469;48.574;8.768;2022-09-27T05:20:45;1.10;;;0.40;;
10831;SDS011;5469;48.574;8.768;2022-09-27T05:23:23;0.40;;;0.30;;
10831;SDS011;5469;48.574;8.768;2022-09-27T05:26:02;0.23;;;0.23;;
10831;SDS011;5469;48.574;8.768;2022-09-27T05:28:38;0.20;;;0.20;;
10831;SDS011;5469;48.574;8.768;2022-09-27T05:31:15;1.07;;;0.30;;
10831;SDS011;5469;48.574;8.768;2022-09-27T05:33:50;0.10;;;0.10;;
10831;SDS011;5469;48.574;8.768;2022-09-27T05:36:28;0.30;;;0.10;;
10831;SDS011;5469;48.574;8.768;2022-09-27T05:39:03;0.30;;;0.30;;
10831;SDS011;5469;48.574;8.768;2022-09-27T05:41:40;0.10;;;0.10;;
10831;SDS011;5469;48.574;8.768;2022-09-27T05:44:16;0.30;;;0.10;;
10831;SDS011;5469;48.574;8.768;2022-09-27T05:46:53;0.83;;;0.83;;
10831;SDS011;5469;48.574;8.768;2022-09-27T05:49:30;0.00;;;0.00;;
10831;SDS011;5469;48.574;8.768;2022-09-27T05:52:07;0.00;;;0.00;;
10831;SDS011;5469;48.574;8.768;2022-09-27T05:54:48;0.10;;;0.10;;
10831;SDS011;5469;48.574;8.768;2022-09-27T05:57:23;0.00;;;0.00;;
10831;SDS011;5469;48.574;8.768;2022-09-27T05:59:58;0.43;;;0.37;;
10831;SDS011;5469;48.574;8.768;2022-09-27T06:02:36;0.20;;;0.20;;
10831;SDS011;5469;48.574;8.768;2022-09-27T06:05:14;0.00;;;0.00;;
10831;SDS011;5469;48.574;8.768;2022-09-27T06:07:50;0.10;;;0.10;;
10831;SDS011;5469;48.574;8.768;2022-09-27T06:10:30;0.83;;;0.20;;
10831;SDS011;5469;48.574;8.768;2022-09-27T06:13:07;0.50;;;0.10;;
10831;SDS011;5469;48.574;8.768;2022-09-27T06:15:44;0.00;;;0.00;;
10831;SDS011;5469;48.574;8.768;2022-09-27T06:18:23;0.00;;;0.00;;
10831;SDS011;5469;48.574;8.768;2022-09-27T06:20:59;0.00;;;0.00;;
10831;SDS011;5469;48.574;8.768;2022-09-27T06:23:35;0.37;;;0.13;;
10831;SDS011;5469;48.574;8.768;2022-09-27T06:26:10;0.00;;;0.00;;
10831;SDS011;5469;48.574;8.768;2022-09-27T06:28:47;0.70;;;0.07;;
10831;SDS011;5469;48.574;8.768;2022-09-27T06:31:22;0.00;;;0.00;;
10831;SDS011;5469;48.574;8.768;2022-09-27T06:34:00;0.00;;;0.00;;
10831;SDS011;5469;48.574;8.768;2022-09-27T06:36:35;0.00;;;0.00;;
10831;SDS011;5469;48.574;8.768;2022-09-27T06:39:13;0.00;;;0.00;;
10831;SDS011;5469;48.574;8.768;2022-09-27T06:41:51;0.10;;;0.00;;
10831;SDS011;5469;48.574;8.768;2022-09-27T06:44:28;0.20;;;0.13;;
10831;SDS011;5469;48.574;8.768;2022-09-27T06:47:04;0.30;;;0.23;;
10831;SDS011;5469;48.574;8.768;2022-09-27T06:49:43;0.00;;;0.00;;
10831;SDS011;5469;48.574;8.768;2022-09-27T06:52:23;0.20;;;0.20;;
10831;SDS011;5469;48.574;8.768;2022-09-27T06:54:58;0.40;;;0.40;;
10831;SDS011;5469;48.574;8.768;2022-09-27T06:57:36;1.73;;;0.47;;
10831;SDS011;5469;48.574;8.768;2022-09-27T07:00:33;0.43;;;0.27;;
10831;SDS011;5469;48.574;8.768;2022-09-27T07:03:09;0.10;;;0.10;;
10831;SDS011;5469;48.574;8.768;2022-09-27T07:05:59;2.30;;;0.37;;
10831;SDS011;5469;48.574;8.768;2022-09-27T07:08:37;0.20;;;0.20;;
10831;SDS011;5469;48.574;8.768;2022-09-27T07:11:13;0.20;;;0.17;;
10831;SDS011;5469;48.574;8.768;2022-09-27T07:13:54;0.53;;;0.30;;
10831;SDS011;5469;48.574;8.768;2022-09-27T07:16:48;0.50;;;0.20;;
10831;SDS011;5469;48.574;8.768;2022-09-27T07:19:29;4.43;;;0.13;;
10831;SDS011;5469;48.574;8.768;2022-09-27T07:22:06;0.30;;;0.13;;
10831;SDS011;5469;48.574;8.768;2022-09-27T07:24:42;0.23;;;0.20;;
10831;SDS011;5469;48.574;8.768;2022-09-27T07:27:18;0.10;;;0.10;;
10831;SDS011;5469;48.574;8.768;2022-09-27T07:30:01;2.87;;;0.30;;
10831;SDS011;5469;48.574;8.768;2022-09-27T07:32:38;0.27;;;0.27;;
10831;SDS011;5469;48.574;8.768;2022-09-27T07:35:17;0.80;;;0.43;;
10831;SDS011;5469;48.574;8.768;2022-09-27T07:38:00;0.53;;;0.50;;
10831;SDS011;5469;48.574;8.768;2022-09-27T07:40:36;0.30;;;0.30;;
10831;SDS011;5469;48.574;8.768;2022-09-27T07:43:16;0.33;;;0.33;;
10831;SDS011;5469;48.574;8.768;2022-09-27T07:45:55;0.30;;;0.30;;
10831;SDS011;5469;48.574;8.768;2022-09-27T07:48:31;0.20;;;0.20;;
10831;SDS011;5469;48.574;8.768;2022-09-27T07:51:13;0.57;;;0.33;;
10831;SDS011;5469;48.574;8.768;2022-09-27T07:53:57;0.30;;;0.30;;
10831;SDS011;5469;48.574;8.768;2022-09-27T07:56:33;0.10;;;0.10;;
10831;SDS011;5469;48.574;8.768;2022-09-27T07:59:08;0.20;;;0.20;;
10831;SDS011;5469;48.574;8.768;2022-09-27T08:01:55;0.20;;;0.20;;
10831;SDS011;5469;48.574;8.768;2022-09-27T08:04:41;0.10;;;0.10;;
10831;SDS011;5469;48.574;8.768;2022-09-27T08:07:40;0.10;;;0.10;;
10831;SDS011;5469;48.574;8.768;2022-09-27T08:10:20;0.10;;;0.00;;
10831;SDS011;5469;48.574;8.768;2022-09-27T08:13:01;0.03;;;0.03;;
10831;SDS011;5469;48.574;8.768;2022-09-27T08:16:00;0.30;;;0.20;;
10831;SDS011;5469;48.574;8.768;2022-09-27T08:18:46;1.50;;;0.20;;
10831;SDS011;5469;48.574;8.768;2022-09-27T08:21:31;0.20;;;0.17;;
10831;SDS011;5469;48.574;8.768;2022-09-27T08:24:30;0.00;;;0.00;;
10831;SDS011;5469;48.574;8.768;2022-09-27T08:27:09;0.00;;;0.00;;
10831;SDS011;5469;48.574;8.768;2022-09-27T08:29:44;0.00;;;0.00;;
10831;SDS011;5469;48.574;8.768;2022-09-27T08:32:22;0.00;;;0.00;;
10831;SDS011;5469;48.574;8.768;2022-09-27T08:35:09;0.00;;;0.00;;
10831;SDS011;5469;48.574;8.768;2022-09-27T08:38:17;0.00;;;0.00;;
10831;SDS011;5469;48.574;8.768;2022-09-27T08:40:54;0.23;;;0.20;;
10831;SDS011;5469;48.574;8.768;2022-09-27T08:43:35;0.33;;;0.07;;
10831;SDS011;5469;48.574;8.768;2022-09-27T08:46:25;0.00;;;0.00;;
10831;SDS011;5469;48.574;8.768;2022-09-27T08:49:11;0.10;;;0.00;;
10831;SDS011;5469;48.574;8.768;2022-09-27T08:51:50;2.57;;;0.17;;
10831;SDS011;5469;48.574;8.768;2022-09-27T08:54:34;0.30;;;0.30;;
10831;SDS011;5469;48.574;8.768;2022-09-27T08:57:12;0.10;;;0.10;;
10831;SDS011;5469;48.574;8.768;2022-09-27T09:00:03;0.23;;;0.23;;
10831;SDS011;5469;48.574;8.768;2022-09-27T09:02:43;0.10;;;0.10;;
10831;SDS011;5469;48.574;8.768;2022-09-27T09:12:22;0.00;;;0.00;;
10831;SDS011;5469;48.574;8.768;2022-09-27T09:15:28;0.00;;;0.00;;
10831;SDS011;5469;48.574;8.768;2022-09-27T09:18:42;0.00;;;0.00;;
10831;SDS011;5469;48.574;8.768;2022-09-27T09:21:32;0.00;;;0.00;;
10831;SDS011;5469;48.574;8.768;2022-09-27T09:24:19;0.30;;;0.27;;
10831;SDS011;5469;48.574;8.768;2022-09-27T09:27:01;0.40;;;0.10;;
10831;SDS011;5469;48.574;8.768;2022-09-27T09:32:43;2.77;;;0.30;;
10831;SDS011;5469;48.574;8.768;2022-09-27T09:35:29;0.10;;;0.10;;
10831;SDS011;5469;48.574;8.768;2022-09-27T09:38:11;0.52;;;0.38;;
10831;SDS011;5469;48.574;8.768;2022-09-27T09:40:51;0.80;;;0.53;;
10831;SDS011;5469;48.574;8.768;2022-09-27T09:43:30;0.30;;;0.30;;
10831;SDS011;5469;48.574;8.768;2022-09-27T09:46:08;0.23;;;0.23;;
10831;SDS011;5469;48.574;8.768;2022-09-27T09:48:49;0.80;;;0.67;;
10831;SDS011;5469;48.574;8.768;2022-09-27T09:51:31;0.40;;;0.30;;
10831;SDS011;5469;48.574;8.768;2022-09-27T09:54:12;0.30;;;0.30;;
10831;SDS011;5469;48.574;8.768;2022-09-27T09:56:54;1.83;;;0.63;;
10831;SDS011;5469;48.574;8.768;2022-09-27T09:59:34;2.23;;;0.60;;
10831;SDS011;5469;48.574;8.768;2022-09-27T10:02:16;0.40;;;0.40;;
10831;SDS011;5469;48.574;8.768;2022-09-27T10:04:58;0.60;;;0.60;;
10831;SDS011;5469;48.574;8.768;2022-09-27T10:07:35;0.50;;;0.30;;
10831;SDS011;5469;48.574;8.768;2022-09-27T10:10:11;0.57;;;0.50;;
10831;SDS011;5469;48.574;8.768;2022-09-27T10:12:47;2.67;;;0.40;;
10831;SDS011;5469;48.574;8.768;2022-09-27T10:15:22;1.17;;;0.30;;
10831;SDS011;5469;48.574;8.768;2022-09-27T10:17:58;0.40;;;0.40;;
10831;SDS011;5469;48.574;8.768;2022-09-27T10:20:34;0.47;;;0.40;;
10831;SDS011;5469;48.574;8.768;2022-09-27T10:23:14;0.63;;;0.30;;
10831;SDS011;5469;48.574;8.768;2022-09-27T10:25:51;0.30;;;0.30;;
10831;SDS011;5469;48.574;8.768;2022-09-27T10:28:36;0.83;;;0.40;;
10831;SDS011;5469;48.574;8.768;2022-09-27T10:31:13;0.50;;;0.50;;
10831;SDS011;5469;48.574;8.768;2022-09-27T10:33:52;0.40;;;0.40;;
10831;SDS011;5469;48.574;8.768;2022-09-27T10:36:28;0.40;;;0.40;;
10831;SDS011;5469;48.574;8.768;2022-09-27T10:39:05;0.57;;;0.33;;
10831;SDS011;5469;48.574;8.768;2022-09-27T10:41:52;0.20;;;0.20;;
10831;SDS011;5469;48.574;8.768;2022-09-27T10:44:26;0.30;;;0.30;;
10831;SDS011;5469;48.574;8.768;2022-09-27T10:47:05;0.30;;;0.30;;
10831;SDS011;5469;48.574;8.768;2022-09-27T10:49:40;1.03;;;0.40;;
10831;SDS011;5469;48.574;8.768;2022-09-27T10:52:15;1.40;;;0.47;;
10831;SDS011;5469;48.574;8.768;2022-09-27T10:54:53;0.23;;;0.23;;
10831;SDS011;5469;48.574;8.768;2022-09-27T10:57:28;1.03;;;0.70;;
10831;SDS011;5469;48.574;8.768;2022-09-27T11:00:05;1.07;;;0.40;;
10831;SDS011;5469;48.574;8.768;2022-09-27T11:02:52;0.67;;;0.67;;
10831;SDS011;5469;48.574;8.768;2022-09-27T11:05:31;0.63;;;0.23;;
10831;SDS011;5469;48.574;8.768;2022-09-27T11:08:19;0.80;;;0.40;;
10831;SDS011;5469;48.574;8.768;2022-09-27T11:11:03;0.17;;;0.17;;
10831;SDS011;5469;48.574;8.768;2022-09-27T11:13:39;0.30;;;0.30;;
10831;SDS011;5469;48.574;8.768;2022-09-27T11:16:17;0.20;;;0.20;;
10831;SDS011;5469;48.574;8.768;2022-09-27T11:19:03;0.23;;;0.23;;
10831;SDS011;5469;48.574;8.768;2022-09-27T11:21:49;0.70;;;0.47;;
10831;SDS011;5469;48.574;8.768;2022-09-27T11:24:36;0.70;;;0.60;;
10831;SDS011;5469;48.574;8.768;2022-09-27T11:27:26;1.13;;;0.63;;
10831;SDS011;5469;48.574;8.768;2022-09-27T11:30:09;1.23;;;0.70;;
10831;SDS011;5469;48.574;8.768;2022-09-27T11:32:50;0.90;;;0.50;;
10831;SDS011;5469;48.574;8.768;2022-09-27T11:38:35;0.53;;;0.30;;
10831;SDS011;5469;48.574;8.768;2022-09-27T11:41:26;1.23;;;0.40;;
10831;SDS011;5469;48.574;8.768;2022-09-27T11:44:17;0.20;;;0.20;;
10831;SDS011;5469;48.574;8.768;2022-09-27T11:47:14;0.43;;;0.37;;
10831;SDS011;5469;48.574;8.768;2022-09-27T11:50:02;0.27;;;0.27;;
10831;SDS011;5469;48.574;8.768;2022-09-27T11:53:00;0.50;;;0.50;;
10831;SDS011;5469;48.574;8.768;2022-09-27T11:55:49;0.80;;;0.70;;
10831;SDS011;5469;48.574;8.768;2022-09-27T11:58:35;3.00;;;0.37;;
10831;SDS011;5469;48.574;8.768;2022-09-27T12:01:21;0.80;;;0.77;;
10831;SDS011;5469;48.574;8.768;2022-09-27T12:07:15;0.57;;;0.57;;
10831;SDS011;5469;48.574;8.768;2022-09-27T12:09:58;2.67;;;1.10;;
10831;SDS011;5469;48.574;8.768;2022-09-27T12:12:36;1.90;;;0.90;;
10831;SDS011;5469;48.574;8.768;2022-09-27T12:15:13;0.80;;;0.80;;
10831;SDS011;5469;48.574;8.768;2022-09-27T12:17:51;2.60;;;1.00;;
10831;SDS011;5469;48.574;8.768;2022-09-27T12:20:29;1.70;;;1.10;;
10831;SDS011;5469;48.574;8.768;2022-09-27T12:23:08;1.43;;;0.93;;
10831;SDS011;5469;48.574;8.768;2022-09-27T12:25:49;0.90;;;0.63;;
10831;SDS011;5469;48.574;8.768;2022-09-27T12:28:29;1.47;;;0.70;;
10831;SDS011;5469;48.574;8.768;2022-09-27T12:31:13;0.40;;;0.30;;
10831;SDS011;5469;48.574;8.768;2022-09-27T12:33:56;0.40;;;0.20;;
10831;SDS011;5469;48.574;8.768;2022-09-27T12:36:40;0.20;;;0.20;;
10831;SDS011;5469;48.574;8.768;2022-09-27T12:39:20;0.17;;;0.17;;
10831;SDS011;5469;48.574;8.768;2022-09-27T12:41:58;0.77;;;0.23;;
10831;SDS011;5469;48.574;8.768;2022-09-27T12:44:36;0.10;;;0.10;;
10831;SDS011;5469;48.574;8.768;2022-09-27T12:47:14;0.10;;;0.10;;
10831;SDS011;5469;48.574;8.768;2022-09-27T12:50:03;0.20;;;0.20;;
10831;SDS011;5469;48.574;8.768;2022-09-27T12:52:46;0.00;;;0.00;;
10831;SDS011;5469;48.574;8.768;2022-09-27T12:55:31;0.10;;;0.10;;
10831;SDS011;5469;48.574;8.768;2022-09-27T12:58:29;0.33;;;0.20;;
10831;SDS011;5469;48.574;8.768;2022-09-27T13:01:32;0.10;;;0.10;;
10831;SDS011;5469;48.574;8.768;2022-09-27T13:04:31;0.20;;;0.17;;
10831;SDS011;5469;48.574;8.768;2022-09-27T13:07:25;0.13;;;0.13;;
10831;SDS011;5469;48.574;8.768;2022-09-27T13:13:09;0.10;;;0.10;;
10831;SDS011;5469;48.574;8.768;2022-09-27T13:15:43;0.20;;;0.20;;
10831;SDS011;5469;48.574;8.768;2022-09-27T13:18:27;0.17;;;0.10;;
10831;SDS011;5469;48.574;8.768;2022-09-27T13:21:03;0.00;;;0.00;;
10831;SDS011;5469;48.574;8.768;2022-09-27T13:26:47;0.00;;;0.00;;
10831;SDS011;5469;48.574;8.768;2022-09-27T13:29:24;0.17;;;0.17;;
10831;SDS011;5469;48.574;8.768;2022-09-27T13:34:54;0.27;;;0.20;;
10831;SDS011;5469;48.574;8.768;2022-09-27T13:37:44;0.10;;;0.10;;
10831;SDS011;5469;48.574;8.768;2022-09-27T13:40:25;0.03;;;0.03;;
10831;SDS011;5469;48.574;8.768;2022-09-27T13:46:22;0.47;;;0.20;;
10831;SDS011;5469;48.574;8.768;2022-09-27T13:48:58;0.73;;;0.20;;
10831;SDS011;5469;48.574;8.768;2022-09-27T13:51:39;0.13;;;0.07;;
10831;SDS011;5469;48.574;8.768;2022-09-27T13:54:35;0.10;;;0.10;;
10831;SDS011;5469;48.574;8.768;2022-09-27T14:00:15;0.10;;;0.00;;
10831;SDS011;5469;48.574;8.768;2022-09-27T14:02:54;0.40;;;0.13;;
10831;SDS011;5469;48.574;8.768;2022-09-27T14:05:35;1.20;;;0.20;;
10831;SDS011;5469;48.574;8.768;2022-09-27T14:08:13;0.13;;;0.07;;
10831;SDS011;5469;48.574;8.768;2022-09-27T14:10:56;0.33;;;0.20;;
10831;SDS011;5469;48.574;8.768;2022-09-27T14:13:34;0.00;;;0.00;;
10831;SDS011;5469;48.574;8.768;2022-09-27T14:16:12;0.10;;;0.10;;
10831;SDS011;5469;48.574;8.768;2022-09-27T14:18:48;0.93;;;0.10;;
10831;SDS011;5469;48.574;8.768;2022-09-27T14:21:29;0.00;;;0.00;;
10831;SDS011;5469;48.574;8.768;2022-09-27T14:24:18;0.10;;;0.10;;
10831;SDS011;5469;48.574;8.768;2022-09-27T14:27:04;0.47;;;0.30;;
10831;SDS011;5469;48.574;8.768;2022-09-27T14:29:45;0.10;;;0.10;;
10831;SDS011;5469;48.574;8.768;2022-09-27T14:32:22;0.43;;;0.00;;
10831;SDS011;5469;48.574;8.768;2022-09-27T14:35:04;0.97;;;0.10;;
10831;SDS011;5469;48.574;8.768;2022-09-27T14:38:02;0.00;;;0.00;;
10831;SDS011;5469;48.574;8.768;2022-09-27T14:40:39;0.10;;;0.00;;
10831;SDS011;5469;48.574;8.768;2022-09-27T14:43:16;0.00;;;0.00;;
10831;SDS011;5469;48.574;8.768;2022-09-27T14:46:00;0.10;;;0.00;;
10831;SDS011;5469;48.574;8.768;2022-09-27T14:48:37;0.63;;;0.10;;
10831;SDS011;5469;48.574;8.768;2022-09-27T14:51:17;0.00;;;0.00;;
10831;SDS011;5469;48.574;8.768;2022-09-27T14:53:54;0.17;;;0.10;;
10831;SDS011;5469;48.574;8.768;2022-09-27T14:56:32;0.10;;;0.10;;
10831;SDS011;5469;48.574;8.768;2022-09-27T14:59:13;0.07;;;0.07;;
10831;SDS011;5469;48.574;8.768;2022-09-27T15:01:59;0.43;;;0.17;;
10831;SDS011;5469;48.574;8.768;2022-09-27T15:04:44;0.23;;;0.10;;
10831;SDS011;5469;48.574;8.768;2022-09-27T15:07:21;0.67;;;0.10;;
10831;SDS011;5469;48.574;8.768;2022-09-27T15:09:58;0.40;;;0.33;;
10831;SDS011;5469;48.574;8.768;2022-09-27T15:12:34;0.60;;;0.10;;
10831;SDS011;5469;48.574;8.768;2022-09-27T15:15:11;0.70;;;0.13;;
10831;SDS011;5469;48.574;8.768;2022-09-27T15:17:52;0.00;;;0.00;;
10831;SDS011;5469;48.574;8.768;2022-09-27T15:20:28;0.60;;;0.20;;
10831;SDS011;5469;48.574;8.768;2022-09-27T15:23:05;0.17;;;0.00;;
10831;SDS011;5469;48.574;8.768;2022-09-27T15:25:59;0.10;;;0.10;;
10831;SDS011;5469;48.574;8.768;2022-09-27T15:28:41;0.10;;;0.10;;
10831;SDS011;5469;48.574;8.768;2022-09-27T15:31:27;0.10;;;0.00;;
10831;SDS011;5469;48.574;8.768;2022-09-27T15:34:04;1.23;;;0.10;;
10831;SDS011;5469;48.574;8.768;2022-09-27T15:36:50;1.13;;;0.20;;
10831;SDS011;5469;48.574;8.768;2022-09-27T15:39:27;1.30;;;0.17;;
10831;SDS011;5469;48.574;8.768;2022-09-27T15:42:05;0.00;;;0.00;;
10831;SDS011;5469;48.574;8.768;2022-09-27T15:44:48;0.40;;;0.10;;
10831;SDS011;5469;48.574;8.768;2022-09-27T15:47:40;0.30;;;0.00;;
10831;SDS011;5469;48.574;8.768;2022-09-27T15:50:32;0.23;;;0.20;;
10831;SDS011;5469;48.574;8.768;2022-09-27T15:53:10;1.43;;;0.37;;
10831;SDS011;5469;48.574;8.768;2022-09-27T15:56:04;0.10;;;0.10;;
10831;SDS011;5469;48.574;8.768;2022-09-27T15:58:44;0.10;;;0.00;;
10831;SDS011;5469;48.574;8.768;2022-09-27T16:01:22;0.00;;;0.00;;
10831;SDS011;5469;48.574;8.768;2022-09-27T16:04:00;0.60;;;0.20;;
10831;SDS011;5469;48.574;8.768;2022-09-27T16:06:37;0.10;;;0.10;;
10831;SDS011;5469;48.574;8.768;2022-09-27T16:09:19;0.27;;;0.00;;
10831;SDS011;5469;48.574;8.768;2022-09-27T16:11:55;0.23;;;0.20;;
10831;SDS011;5469;48.574;8.768;2022-09-27T16:14:30;0.20;;;0.10;;
10831;SDS011;5469;48.574;8.768;2022-09-27T16:17:05;0.00;;;0.00;;
10831;SDS011;5469;48.574;8.768;2022-09-27T16:19:46;0.00;;;0.00;;
10831;SDS011;5469;48.574;8.768;2022-09-27T16:22:22;0.10;;;0.10;;
10831;SDS011;5469;48.574;8.768;2022-09-27T16:24:57;0.30;;;0.30;;
10831;SDS011;5469;48.574;8.768;2022-09-27T16:27:33;0.53;;;0.43;;
10831;SDS011;5469;48.574;8.768;2022-09-27T16:30:10;0.30;;;0.30;;
10831;SDS011;5469;48.574;8.768;2022-09-27T16:32:47;0.97;;;0.80;;
10831;SDS011;5469;48.574;8.768;2022-09-27T16:35:24;1.00;;;0.60;;
10831;SDS011;5469;48.574;8.768;2022-09-27T16:38:02;0.87;;;0.63;;
10831;SDS011;5469;48.574;8.768;2022-09-27T16:40:37;0.33;;;0.30;;
10831;SDS011;5469;48.574;8.768;2022-09-27T16:43:12;0.17;;;0.17;;
10831;SDS011;5469;48.574;8.768;2022-09-27T16:45:50;0.47;;;0.20;;
10831;SDS011;5469;48.574;8.768;2022-09-27T16:48:26;0.20;;;0.17;;
10831;SDS011;5469;48.574;8.768;2022-09-27T16:51:05;0.00;;;0.00;;
10831;SDS011;5469;48.574;8.768;2022-09-27T16:54:02;0.07;;;0.07;;
10831;SDS011;5469;48.574;8.768;2022-09-27T16:56:38;0.10;;;0.10;;
10831;SDS011;5469;48.574;8.768;2022-09-27T16:59:13;0.27;;;0.10;;
10831;SDS011;5469;48.574;8.768;2022-09-27T17:01:51;0.10;;;0.10;;
10831;SDS011;5469;48.574;8.768;2022-09-27T17:04:30;0.00;;;0.00;;
10831;SDS011;5469;48.574;8.768;2022-09-27T17:07:05;0.00;;;0.00;;